Terminal Aerodrome Forecast
Issued by NWS Mt. Holly, NJ

Home | Current Version | Previous Version | Text Only | Print | Product List | Glossary On
Versions: 1 2 3 4 5 6 7 8 9 10 11 12 13 14 15 16 17 18 19 20 21 22 23 24
000
FTUS41 KPHI 031124
TAFTTN
TAF
KTTN 031124Z 0312/0412 VRB03KT P6SM SCT250
     FM031400 04004KT P6SM SCT040 BKN250
     FM031700 16006KT P6SM BKN040
     FM041000 11004KT 5SM -SHRA BKN050 OVC100=

USA.gov is the U.S. government's official web portal to all federal, state and local government web resources and services.